This is the latest recevied weather packets stored in our database for station/object KC8BSD. If no packets are shown the sender has not sent any weather packets the latest 10 day(s).
| Time | Temp. | Humidity | Pressure | Rain* | Wind** | Luminosity | Snow |
|---|---|---|---|---|---|---|---|
| 1778073515 | 10° C | 66% | 1012.7 hPa | 0 mm | - | 242 W/m² | - |
| 1778073211 | 10° C | 64% | 1012.8 hPa | 0 mm | - | 337 W/m² | - |
| 1778072908 | 10° C | 66% | 1012.7 hPa | 0 mm | - | 193 W/m² | - |
| 1778072604 | 9.44° C | 64% | 1012.5 hPa | 0 mm | - | 283 W/m² | - |
| 1778072302 | 9.44° C | 63% | 1012.4 hPa | 0 mm | - | 255 W/m² | - |
| 1778072000 | 8.89° C | 63% | 1012.6 hPa | 0 mm | - | 278 W/m² | - |
| 1778071699 | 8.89° C | 62% | 1012.6 hPa | 0 mm | - | 264 W/m² | - |
| 1778071395 | 9.44° C | 61% | 1012.4 hPa | 0 mm | - | 237 W/m² | - |
| 1778071093 | 8.89° C | 63% | 1012.5 hPa | 0 mm | - | 192 W/m² | - |
| 1778070792 | 8.33° C | 64% | 1012.3 hPa | 0 mm | - | 203 W/m² | - |
| 1778070488 | 8.33° C | 64% | 1012.1 hPa | 0 mm | - | 200 W/m² | - |
| 1778070185 | 8.33° C | 65% | 1012.1 hPa | 0 mm | - | 176 W/m² | - |
| 1778069883 | 7.78° C | 64% | 1012.1 hPa | 0 mm | - | 162 W/m² | - |
| 1778069580 | 7.78° C | 65% | 1012.2 hPa | 0 mm | - | 116 W/m² | - |
| 1778069277 | 7.78° C | 64% | 1012 hPa | 0 mm | - | 123 W/m² | - |
| 1778068975 | 7.22° C | 67% | 1012 hPa | 0 mm | - | 87 W/m² | - |
| 1778068672 | 7.22° C | 66% | 1012 hPa | 0 mm | - | 61 W/m² | - |
| 1778068370 | 7.22° C | 65% | 1011.9 hPa | 0 mm | - | 73 W/m² | - |
| 1778068068 | 7.22° C | 64% | 1011.8 hPa | 0 mm | - | 63 W/m² | - |
| 1778067765 | 7.22° C | 64% | 1011.9 hPa | 0 mm | - | 75 W/m² | - |
| 1778067464 | 7.22° C | 64% | 1011.8 hPa | 0 mm | - | 67 W/m² | - |
| 1778067161 | 6.67° C | 65% | 1011.4 hPa | 0 mm | - | 55 W/m² | - |
| 1778066857 | 6.11° C | 67% | 1011.7 hPa | 0 mm | - | 50 W/m² | - |
| 1778066555 | 5.56° C | 67% | 1011.4 hPa | 0 mm | - | 41 W/m² | - |
| 1778066252 | 5.56° C | 69% | 1011.5 hPa | 0 mm | - | 25 W/m² | - |
* Rain latest hour (hover to see other rain measurements)
** Current wind speed in m/s (hover to see current wind gust speed)